Time;durP1;ratioP1;P1;durP2;ratioP2;P2;SDS_P1;SDS_P2;PMS_P1;PMS_P2;Temp;Humidity;BMP_temperature;BMP_pressure;BME280_temperature;BME280_humidity;BME280_pressure;Samples;Min_cycle;Max_cycle;Signal;HPM_P1;HPM_P2
2022/01/15 00:00:21;;;;;;;46.00;9.20;;;;;;;;;;6151196;23;20461;-88
2022/01/15 00:02:46;;;;;;;37.67;6.97;;;;;;;;;;6152188;23;20113;-88
2022/01/15 00:05:11;;;;;;;54.70;8.20;;;;;;;;;;6150590;23;20002;-88
2022/01/15 00:07:38;;;;;;;66.85;10.13;;;;;;;;;;6150176;23;20115;-88
2022/01/15 00:10:04;;;;;;;48.30;8.18;;;;;;;;;;6151374;23;20001;-88
2022/01/15 00:12:36;;;;;;;44.53;7.30;;;;;;;;;;6151769;23;20024;-88
2022/01/15 00:15:01;;;;;;;46.90;7.57;;;;;;;;;;6150668;23;19997;-88
2022/01/15 00:17:46;;;;;;;33.42;6.35;;;;;;;;;;6149741;23;20012;-88
2022/01/15 00:20:12;;;;;;;46.45;7.45;;;;;;;;;;6149852;23;19994;-88
2022/01/15 00:22:37;;;;;;;48.72;6.93;;;;;;;;;;6151901;23;20377;-88
2022/01/15 00:25:02;;;;;;;43.63;7.80;;;;;;;;;;6152237;23;20007;-88
2022/01/15 00:27:28;;;;;;;47.65;7.95;;;;;;;;;;6152358;23;20332;-88
2022/01/15 00:29:53;;;;;;;44.83;8.37;;;;;;;;;;6151004;23;20337;-88
2022/01/15 00:32:18;;;;;;;42.37;6.57;;;;;;;;;;6152103;23;20245;-88
2022/01/15 00:34:43;;;;;;;44.23;7.80;;;;;;;;;;6150074;23;20578;-88
2022/01/15 00:37:08;;;;;;;43.10;7.40;;;;;;;;;;6152606;23;20260;-88
2022/01/15 00:39:33;;;;;;;52.63;8.43;;;;;;;;;;6149966;23;20083;-87
2022/01/15 00:41:59;;;;;;;39.87;6.47;;;;;;;;;;6150297;23;20097;-88
2022/01/15 00:44:24;;;;;;;46.67;7.53;;;;;;;;;;6152099;23;20674;-88
2022/01/15 00:46:49;;;;;;;42.07;7.30;;;;;;;;;;6151953;23;20008;-88
2022/01/15 00:49:14;;;;;;;52.03;8.75;;;;;;;;;;6150017;23;20650;-88
2022/01/15 00:51:40;;;;;;;45.72;5.95;;;;;;;;;;6151691;23;20421;-88
2022/01/15 00:54:05;;;;;;;42.38;8.57;;;;;;;;;;6150467;23;20052;-88
2022/01/15 00:56:30;;;;;;;42.15;9.25;;;;;;;;;;6151988;23;20329;-88
2022/01/15 00:58:56;;;;;;;46.20;6.78;;;;;;;;;;6151923;23;20001;-88
2022/01/15 01:01:21;;;;;;;52.80;7.53;;;;;;;;;;6152277;23;20001;-88
2022/01/15 01:03:47;;;;;;;50.55;7.97;;;;;;;;;;6149974;23;20455;-88
2022/01/15 01:06:12;;;;;;;54.35;7.28;;;;;;;;;;6151616;23;19998;-88
2022/01/15 01:08:38;;;;;;;47.67;8.27;;;;;;;;;;6150041;23;19997;-88
2022/01/15 01:11:10;;;;;;;44.33;6.93;;;;;;;;;;6151487;23;20430;-88
2022/01/15 01:20:03;;;;;;;44.38;8.18;;;;;;;;;;6149328;23;20028;-88
2022/01/15 01:22:45;;;;;;;52.42;8.23;;;;;;;;;;6150794;23;20014;-88
2022/01/15 01:24:43;;;;;;;44.35;8.30;;;;;;;;;;6150711;23;20009;-88
2022/01/15 01:27:18;;;;;;;52.33;8.27;;;;;;;;;;6150979;23;20006;-88
2022/01/15 01:35:07;;;;;;;47.80;7.38;;;;;;;;;;6151111;23;20005;-88
2022/01/15 01:37:38;;;;;;;51.28;8.52;;;;;;;;;;6149727;23;20017;-88
2022/01/15 01:43:15;;;;;;;50.92;8.23;;;;;;;;;;6122265;23;20466;-88
2022/01/15 01:45:45;;;;;;;40.00;6.63;;;;;;;;;;6148624;23;20391;-88
2022/01/15 01:48:11;;;;;;;52.05;6.85;;;;;;;;;;6150834;23;20025;-88
2022/01/15 01:50:36;;;;;;;44.05;7.25;;;;;;;;;;6150476;23;20389;-88
2022/01/15 01:53:01;;;;;;;43.08;7.88;;;;;;;;;;6151717;23;20008;-88
2022/01/15 01:55:27;;;;;;;47.40;8.70;;;;;;;;;;6150859;23;20006;-88
2022/01/15 01:57:53;;;;;;;46.95;7.00;;;;;;;;;;6150652;23;19997;-88
2022/01/15 02:00:19;;;;;;;47.50;7.00;;;;;;;;;;6148723;23;20020;-88
2022/01/15 02:02:45;;;;;;;48.17;6.70;;;;;;;;;;6150330;23;20092;-88
2022/01/15 02:05:10;;;;;;;43.38;7.57;;;;;;;;;;6148734;23;20005;-87
2022/01/15 02:07:36;;;;;;;52.58;7.22;;;;;;;;;;6148513;23;20342;-88
2022/01/15 02:10:03;;;;;;;39.42;7.55;;;;;;;;;;6151015;23;19998;-88
2022/01/15 02:12:28;;;;;;;46.58;7.20;;;;;;;;;;6150766;23;20013;-88
2022/01/15 02:14:54;;;;;;;50.85;8.48;;;;;;;;;;6150315;23;20029;-88
2022/01/15 02:17:21;;;;;;;40.70;7.78;;;;;;;;;;6149209;23;20403;-88
2022/01/15 02:20:09;;;;;;;44.55;8.65;;;;;;;;;;6148652;23;20006;-88
2022/01/15 02:25:15;;;;;;;47.78;7.22;;;;;;;;;;6150085;23;20712;-88
2022/01/15 02:27:40;;;;;;;42.25;6.45;;;;;;;;;;6150237;23;20072;-88
2022/01/15 02:30:06;;;;;;;43.33;5.83;;;;;;;;;;6150832;23;20073;-88
2022/01/15 02:32:32;;;;;;;44.58;7.55;;;;;;;;;;6148274;23;20606;-88
2022/01/15 02:34:57;;;;;;;48.13;8.65;;;;;;;;;;6150729;23;19997;-88
2022/01/15 02:37:22;;;;;;;50.30;7.25;;;;;;;;;;6149656;23;20492;-88
2022/01/15 02:39:48;;;;;;;65.83;8.83;;;;;;;;;;6148190;23;20013;-88
2022/01/15 02:42:13;;;;;;;49.43;8.20;;;;;;;;;;6148787;23;20686;-88
2022/01/15 02:44:40;;;;;;;51.47;6.30;;;;;;;;;;6148802;23;20240;-88
2022/01/15 02:49:34;;;;;;;51.97;7.68;;;;;;;;;;6151240;23;20077;-88
2022/01/15 02:51:59;;;;;;;42.70;6.30;;;;;;;;;;6150204;23;20021;-88
2022/01/15 02:54:24;;;;;;;41.55;7.60;;;;;;;;;;6148677;23;20001;-87
2022/01/15 02:56:49;;;;;;;33.90;7.68;;;;;;;;;;6150038;23;19998;-88
2022/01/15 02:59:16;;;;;;;32.00;6.32;;;;;;;;;;6148431;23;20374;-88
2022/01/15 03:01:41;;;;;;;51.03;7.90;;;;;;;;;;6149765;23;20009;-87
2022/01/15 03:04:06;;;;;;;43.83;6.97;;;;;;;;;;6148648;23;20009;-88
2022/01/15 03:06:31;;;;;;;46.97;6.78;;;;;;;;;;6148312;23;19997;-88
2022/01/15 03:08:57;;;;;;;52.13;8.35;;;;;;;;;;6148182;23;20006;-88
2022/01/15 03:11:22;;;;;;;51.70;8.27;;;;;;;;;;6150442;23;20025;-88
2022/01/15 03:13:47;;;;;;;35.65;7.03;;;;;;;;;;6124369;23;20476;-88
2022/01/15 03:16:15;;;;;;;44.05;7.63;;;;;;;;;;6150569;23;20454;-88
2022/01/15 03:18:40;;;;;;;38.30;7.50;;;;;;;;;;6148655;23;20434;-88
2022/01/15 03:21:05;;;;;;;33.45;6.80;;;;;;;;;;6149521;23;20005;-88
2022/01/15 03:23:30;;;;;;;34.20;6.90;;;;;;;;;;6148523;23;20461;-88
2022/01/15 03:25:56;;;;;;;34.03;6.63;;;;;;;;;;6148942;23;20012;-88
2022/01/15 03:28:21;;;;;;;47.17;6.97;;;;;;;;;;6148679;23;20338;-88
2022/01/15 03:30:46;;;;;;;34.88;5.70;;;;;;;;;;6149781;23;20236;-88
2022/01/15 03:33:11;;;;;;;41.03;7.70;;;;;;;;;;6149727;23;20012;-88
2022/01/15 03:35:37;;;;;;;49.23;7.77;;;;;;;;;;6150138;23;20021;-88
2022/01/15 03:38:03;;;;;;;53.22;7.00;;;;;;;;;;6151395;23;20352;-88
2022/01/15 03:40:28;;;;;;;45.70;7.45;;;;;;;;;;6151537;23;20201;-88
2022/01/15 03:42:53;;;;;;;50.13;6.15;;;;;;;;;;6149792;23;20328;-88
2022/01/15 03:45:18;;;;;;;35.85;4.78;;;;;;;;;;6149674;23;19998;-88
2022/01/15 03:47:45;;;;;;;33.60;6.03;;;;;;;;;;6150086;23;20152;-88
2022/01/15 03:50:10;;;;;;;35.45;5.45;;;;;;;;;;6151701;23;20005;-88
2022/01/15 03:52:35;;;;;;;44.25;7.10;;;;;;;;;;6152627;23;20125;-88
2022/01/15 03:55:01;;;;;;;42.03;6.00;;;;;;;;;;6150011;23;20028;-88
2022/01/15 03:57:26;;;;;;;35.67;5.75;;;;;;;;;;6152138;23;20072;-88
2022/01/15 03:59:51;;;;;;;36.00;6.50;;;;;;;;;;6152184;23;20060;-88
2022/01/15 04:02:17;;;;;;;28.20;6.45;;;;;;;;;;6149959;23;20005;-88
2022/01/15 04:04:42;;;;;;;42.40;7.65;;;;;;;;;;6125248;23;20460;-88
2022/01/15 04:07:08;;;;;;;29.83;4.60;;;;;;;;;;6150635;23;20730;-88
2022/01/15 04:09:33;;;;;;;37.05;6.47;;;;;;;;;;6151384;23;20228;-88
2022/01/15 04:11:58;;;;;;;40.80;6.05;;;;;;;;;;6149638;23;20005;-88
2022/01/15 04:14:23;;;;;;;45.58;6.75;;;;;;;;;;6151984;23;20002;-88
2022/01/15 04:16:49;;;;;;;39.03;6.45;;;;;;;;;;6152579;23;20073;-88
2022/01/15 04:19:14;;;;;;;42.67;7.20;;;;;;;;;;6151010;23;20001;-88
2022/01/15 04:21:39;;;;;;;35.50;7.30;;;;;;;;;;6151382;23;20655;-88
2022/01/15 04:24:04;;;;;;;42.00;5.70;;;;;;;;;;6151212;23;20498;-88
2022/01/15 04:26:29;;;;;;;34.75;5.50;;;;;;;;;;6149879;23;20080;-88
2022/01/15 04:28:55;;;;;;;37.72;7.63;;;;;;;;;;6150255;23;20334;-87
2022/01/15 04:31:21;;;;;;;30.63;5.50;;;;;;;;;;6149664;23;20009;-88
2022/01/15 04:33:47;;;;;;;38.90;5.72;;;;;;;;;;6151575;23;20009;-88
2022/01/15 04:36:12;;;;;;;43.05;6.78;;;;;;;;;;6149079;23;20001;-88
2022/01/15 04:38:38;;;;;;;37.00;5.82;;;;;;;;;;6148955;23;20025;-88
2022/01/15 04:41:08;;;;;;;37.13;5.22;;;;;;;;;;6151697;23;20076;-88
2022/01/15 04:43:33;;;;;;;35.03;5.90;;;;;;;;;;6151148;23;20009;-88
2022/01/15 04:45:58;;;;;;;35.75;5.68;;;;;;;;;;6149440;23;20108;-87
2022/01/15 04:48:23;;;;;;;36.63;5.82;;;;;;;;;;6150685;23;19998;-87
2022/01/15 04:50:49;;;;;;;42.40;5.95;;;;;;;;;;6149631;23;20001;-88
2022/01/15 04:53:14;;;;;;;36.70;6.20;;;;;;;;;;6151327;23;20067;-88
2022/01/15 04:55:39;;;;;;;27.70;5.83;;;;;;;;;;6149871;23;20021;-88
2022/01/15 04:58:05;;;;;;;39.80;7.50;;;;;;;;;;6149552;23;21007;-88
2022/01/15 05:00:31;;;;;;;45.20;7.13;;;;;;;;;;6149486;23;20303;-88
2022/01/15 05:02:57;;;;;;;35.13;7.35;;;;;;;;;;6150044;23;20028;-88
2022/01/15 05:05:22;;;;;;;35.13;6.47;;;;;;;;;;6150109;23;20009;-88
2022/01/15 05:07:47;;;;;;;45.13;5.93;;;;;;;;;;6151541;23;20076;-88
2022/01/15 05:10:16;;;;;;;37.23;7.83;;;;;;;;;;6151349;23;20080;-88
2022/01/15 05:12:46;;;;;;;38.70;6.82;;;;;;;;;;6150130;23;20690;-88
2022/01/15 05:15:12;;;;;;;41.20;6.90;;;;;;;;;;6151646;23;20644;-88
2022/01/15 05:17:38;;;;;;;43.10;6.75;;;;;;;;;;6124873;23;20085;-88
2022/01/15 05:20:03;;;;;;;44.17;6.38;;;;;;;;;;6149918;23;20012;-88
2022/01/15 05:22:29;;;;;;;39.25;6.85;;;;;;;;;;6149376;23;20013;-88
2022/01/15 05:24:54;;;;;;;45.35;6.93;;;;;;;;;;6151118;23;20128;-88
2022/01/15 05:27:19;;;;;;;28.40;5.22;;;;;;;;;;6149014;23;20032;-88
2022/01/15 05:29:45;;;;;;;41.58;7.35;;;;;;;;;;6152504;23;20048;-88
2022/01/15 05:32:10;;;;;;;33.40;5.28;;;;;;;;;;6149422;23;20064;-88
2022/01/15 05:34:35;;;;;;;36.95;5.53;;;;;;;;;;6151496;23;20025;-88
2022/01/15 05:37:01;;;;;;;24.40;5.30;;;;;;;;;;6149482;23;20018;-88
2022/01/15 05:39:26;;;;;;;37.30;5.47;;;;;;;;;;6149583;23;20016;-88
2022/01/15 05:41:52;;;;;;;39.10;7.13;;;;;;;;;;6149042;23;20435;-88
2022/01/15 05:44:17;;;;;;;39.60;5.38;;;;;;;;;;6150455;23;20271;-88
2022/01/15 05:46:44;;;;;;;29.43;5.40;;;;;;;;;;6148826;23;20033;-88
2022/01/15 05:49:09;;;;;;;27.13;4.75;;;;;;;;;;6150658;23;20221;-88
2022/01/15 05:51:34;;;;;;;31.55;6.30;;;;;;;;;;6151950;23;20006;-88
2022/01/15 05:54:01;;;;;;;50.13;6.40;;;;;;;;;;6149564;23;20002;-86
2022/01/15 05:56:26;;;;;;;24.92;4.88;;;;;;;;;;6150441;23;20237;-88
2022/01/15 05:58:51;;;;;;;38.97;5.30;;;;;;;;;;6150034;23;20461;-88
2022/01/15 06:01:17;;;;;;;33.45;6.03;;;;;;;;;;6150355;23;20002;-88
2022/01/15 06:03:42;;;;;;;35.08;6.82;;;;;;;;;;6148315;23;20013;-88
2022/01/15 06:06:07;;;;;;;31.60;6.53;;;;;;;;;;6151060;23;20366;-88
2022/01/15 06:08:32;;;;;;;31.65;5.10;;;;;;;;;;6124702;23;20236;-88
2022/01/15 06:10:57;;;;;;;29.07;5.00;;;;;;;;;;6150391;23;20005;-88
2022/01/15 06:13:23;;;;;;;32.22;5.80;;;;;;;;;;6149533;23;20814;-88
2022/01/15 06:15:48;;;;;;;35.87;5.30;;;;;;;;;;6148669;23;20016;-88
2022/01/15 06:18:13;;;;;;;38.42;6.13;;;;;;;;;;6148930;23;20221;-88
2022/01/15 06:20:38;;;;;;;32.30;5.07;;;;;;;;;;6148837;23;20052;-87
2022/01/15 06:23:03;;;;;;;28.13;4.97;;;;;;;;;;6149872;23;20013;-88
2022/01/15 06:25:29;;;;;;;24.55;6.15;;;;;;;;;;6151305;23;20005;-89
2022/01/15 06:27:54;;;;;;;40.15;6.57;;;;;;;;;;6148752;23;20002;-88
2022/01/15 06:30:19;;;;;;;38.72;6.72;;;;;;;;;;6150486;23;20002;-88
2022/01/15 06:32:44;;;;;;;33.10;5.65;;;;;;;;;;6148026;23;20005;-88
2022/01/15 06:35:11;;;;;;;35.20;7.13;;;;;;;;;;6150018;23;20064;-88
2022/01/15 06:37:36;;;;;;;32.50;5.05;;;;;;;;;;6148086;23;21037;-88
2022/01/15 06:40:02;;;;;;;38.08;5.10;;;;;;;;;;6148156;23;20012;-88
2022/01/15 06:42:29;;;;;;;27.30;5.30;;;;;;;;;;6149069;23;20005;-88
2022/01/15 06:44:54;;;;;;;34.10;5.90;;;;;;;;;;6148667;23;20012;-88
2022/01/15 06:47:19;;;;;;;34.75;5.72;;;;;;;;;;6148877;23;20006;-88
2022/01/15 06:49:44;;;;;;;41.95;6.07;;;;;;;;;;6149901;23;20056;-88
2022/01/15 06:52:09;;;;;;;31.30;6.20;;;;;;;;;;6147533;23;20008;-87
2022/01/15 06:54:35;;;;;;;35.05;5.38;;;;;;;;;;6149163;23;20260;-88
2022/01/15 06:57:00;;;;;;;25.27;5.20;;;;;;;;;;6149478;23;19997;-88
2022/01/15 06:59:25;;;;;;;42.60;5.63;;;;;;;;;;6149345;23;20737;-88
2022/01/15 07:01:50;;;;;;;34.75;5.93;;;;;;;;;;6149038;23;20245;-88
2022/01/15 07:04:16;;;;;;;32.77;5.63;;;;;;;;;;6150434;23;20385;-88
2022/01/15 07:06:41;;;;;;;31.13;4.65;;;;;;;;;;6150006;23;20252;-87
2022/01/15 07:09:06;;;;;;;30.27;5.10;;;;;;;;;;6149879;23;20002;-88
2022/01/15 07:11:31;;;;;;;44.25;6.60;;;;;;;;;;6150205;23;20333;-88
2022/01/15 07:13:57;;;;;;;27.70;5.28;;;;;;;;;;6152140;23;20005;-88
2022/01/15 07:16:22;;;;;;;47.05;6.30;;;;;;;;;;6151968;23;19998;-88
2022/01/15 07:18:48;;;;;;;36.08;5.32;;;;;;;;;;6152323;23;20099;-88
2022/01/15 07:21:13;;;;;;;26.00;5.88;;;;;;;;;;6152595;23;20757;-88
2022/01/15 07:23:38;;;;;;;42.05;5.15;;;;;;;;;;6149715;23;20354;-88
2022/01/15 07:26:04;;;;;;;29.20;4.20;;;;;;;;;;6150318;23;20333;-88
2022/01/15 07:28:30;;;;;;;40.45;5.68;;;;;;;;;;6150946;23;20089;-87
2022/01/15 07:30:56;;;;;;;34.60;4.85;;;;;;;;;;6150826;23;20006;-88
2022/01/15 07:33:21;;;;;;;28.17;4.85;;;;;;;;;;6150002;23;20004;-88
2022/01/15 07:35:46;;;;;;;27.83;4.90;;;;;;;;;;6150799;23;20084;-88
2022/01/15 07:38:13;;;;;;;38.63;6.38;;;;;;;;;;6152153;23;20028;-88
2022/01/15 07:40:38;;;;;;;39.45;5.50;;;;;;;;;;6151846;23;20004;-88
2022/01/15 07:43:03;;;;;;;35.38;6.07;;;;;;;;;;6152026;23;20073;-88
2022/01/15 07:45:28;;;;;;;27.73;5.85;;;;;;;;;;6151462;23;20021;-88
2022/01/15 07:47:54;;;;;;;28.83;5.80;;;;;;;;;;6151822;23;20048;-88
2022/01/15 07:50:23;;;;;;;24.63;5.13;;;;;;;;;;6150725;23;20732;-88
2022/01/15 07:52:50;;;;;;;31.02;5.93;;;;;;;;;;6149850;23;20252;-88
2022/01/15 07:55:15;;;;;;;34.35;6.90;;;;;;;;;;6152183;23;20027;-88
2022/01/15 07:57:43;;;;;;;25.13;5.07;;;;;;;;;;6151293;23;20001;-88
2022/01/15 08:00:09;;;;;;;30.58;4.80;;;;;;;;;;6151860;23;20224;-88
2022/01/15 08:02:34;;;;;;;28.73;5.43;;;;;;;;;;6149697;23;20018;-88
2022/01/15 08:04:59;;;;;;;32.95;5.50;;;;;;;;;;6150572;23;20008;-88
2022/01/15 08:07:24;;;;;;;39.50;6.50;;;;;;;;;;6151496;23;20334;-88
2022/01/15 08:09:50;;;;;;;29.35;5.95;;;;;;;;;;6151960;23;20240;-88
2022/01/15 08:12:19;;;;;;;42.42;6.65;;;;;;;;;;6150325;23;20001;-88
2022/01/15 08:14:44;;;;;;;34.05;7.00;;;;;;;;;;6151788;23;20005;-88
2022/01/15 08:17:09;;;;;;;41.40;6.15;;;;;;;;;;6151898;23;20068;-87
2022/01/15 08:19:35;;;;;;;32.75;6.00;;;;;;;;;;6150733;23;20014;-88
2022/01/15 08:22:00;;;;;;;31.48;5.32;;;;;;;;;;6151460;23;20001;-88
2022/01/15 08:24:25;;;;;;;33.97;6.55;;;;;;;;;;6151418;23;20021;-88
2022/01/15 08:26:52;;;;;;;40.65;7.80;;;;;;;;;;6150586;23;20657;-88
2022/01/15 08:29:17;;;;;;;38.65;6.10;;;;;;;;;;6151734;23;20005;-87
2022/01/15 08:31:42;;;;;;;31.65;6.82;;;;;;;;;;6151686;23;20477;-88
2022/01/15 22:14:11;;;;;;;69.65;33.97;;;;;;;;;;6152140;23;20025;-88
2022/01/15 22:16:36;;;;;;;66.00;35.28;;;;;;;;;;6124462;23;20017;-88
2022/01/15 22:19:02;;;;;;;67.47;35.35;;;;;;;;;;6148500;23;20086;-88
2022/01/15 22:21:27;;;;;;;68.55;35.00;;;;;;;;;;6151961;23;20008;-88
2022/01/15 22:23:53;;;;;;;76.20;36.37;;;;;;;;;;6150748;23;20037;-88
2022/01/15 22:26:18;;;;;;;73.00;36.92;;;;;;;;;;6152294;23;20303;-88
2022/01/15 22:28:50;;;;;;;69.93;39.08;;;;;;;;;;6126301;23;20021;-88
2022/01/15 22:31:15;;;;;;;73.93;39.75;;;;;;;;;;6151136;23;20434;-88
2022/01/15 22:33:41;;;;;;;79.25;42.42;;;;;;;;;;6125102;23;20015;-88
2022/01/15 22:36:06;;;;;;;75.40;42.33;;;;;;;;;;6148848;23;20088;-88
2022/01/15 22:38:32;;;;;;;68.32;38.80;;;;;;;;;;6149699;23;20484;-88
2022/01/15 22:40:57;;;;;;;79.85;41.63;;;;;;;;;;6151636;23;20009;-88
2022/01/15 22:43:22;;;;;;;70.95;41.33;;;;;;;;;;6125404;23;20036;-88
2022/01/15 22:45:51;;;;;;;68.65;40.58;;;;;;;;;;6151149;23;20375;-88
2022/01/15 22:48:16;;;;;;;70.82;40.63;;;;;;;;;;6124861;23;20056;-88
2022/01/15 22:50:41;;;;;;;75.00;42.67;;;;;;;;;;6151015;23;20001;-88
2022/01/15 22:53:07;;;;;;;80.20;44.15;;;;;;;;;;6149298;23;20551;-88
2022/01/15 22:55:32;;;;;;;72.20;44.07;;;;;;;;;;6149758;23;20024;-88
2022/01/15 22:57:57;;;;;;;73.33;41.63;;;;;;;;;;6151534;23;20227;-88
2022/01/15 23:00:35;;;;;;;74.45;42.78;;;;;;;;;;6149573;23;20270;-88
2022/01/15 23:03:02;;;;;;;78.72;44.85;;;;;;;;;;6149876;23;20009;-88
2022/01/15 23:05:28;;;;;;;78.18;43.72;;;;;;;;;;6150382;23;20001;-88
2022/01/15 23:07:55;;;;;;;75.93;45.33;;;;;;;;;;6149581;23;20080;-88
2022/01/15 23:10:20;;;;;;;81.20;47.72;;;;;;;;;;6151868;23;20005;-88
2022/01/15 23:12:49;;;;;;;79.53;44.25;;;;;;;;;;6150785;23;20001;-88
2022/01/15 23:17:52;;;;;;;76.00;44.05;;;;;;;;;;6160304;23;20378;-88
2022/01/15 23:20:17;;;;;;;83.07;46.35;;;;;;;;;;6149702;23;20001;-88
2022/01/15 23:22:43;;;;;;;78.13;45.78;;;;;;;;;;6151508;23;19997;-88
2022/01/15 23:25:08;;;;;;;81.83;46.20;;;;;;;;;;6126574;23;19994;-89
2022/01/15 23:27:33;;;;;;;77.47;44.38;;;;;;;;;;6127510;23;20566;-89
2022/01/15 23:29:58;;;;;;;80.17;45.37;;;;;;;;;;6150847;23;20009;-89
2022/01/15 23:32:23;;;;;;;85.83;47.70;;;;;;;;;;6125341;23;20233;-88
2022/01/15 23:34:49;;;;;;;90.53;47.50;;;;;;;;;;6151181;23;20606;-88
2022/01/15 23:37:14;;;;;;;83.13;41.83;;;;;;;;;;6152443;23;20253;-88
2022/01/15 23:39:39;;;;;;;74.53;39.60;;;;;;;;;;6153037;23;19998;-88
2022/01/15 23:42:04;;;;;;;69.32;40.45;;;;;;;;;;6127012;23;20001;-88
2022/01/15 23:44:31;;;;;;;68.80;40.35;;;;;;;;;;6149437;23;20049;-88
2022/01/15 23:46:56;;;;;;;68.53;37.78;;;;;;;;;;6125744;23;20021;-88
2022/01/15 23:49:23;;;;;;;70.80;37.97;;;;;;;;;;6153195;23;20024;-88
2022/01/15 23:51:48;;;;;;;74.88;38.65;;;;;;;;;;6152407;23;20233;-88
2022/01/15 23:54:14;;;;;;;75.43;40.38;;;;;;;;;;6154712;23;20001;-88
2022/01/15 23:56:39;;;;;;;67.70;40.50;;;;;;;;;;6128730;23;20419;-88
2022/01/15 23:59:05;;;;;;;70.38;41.30;;;;;;;;;;6155277;23;20492;-88
